Time;durP1;ratioP1;P1;durP2;ratioP2;P2;SDS_P1;SDS_P2;PMS_P1;PMS_P2;Temp;Humidity;BMP_temperature;BMP_pressure;BME280_temperature;BME280_humidity;BME280_pressure;Samples;Min_cycle;Max_cycle;Signal;HPM_P1;HPM_P2
2021/04/04 00:02:17;;;;;;;33.00;17.80;;;;;;;1.29;58.38;99120.30;114449;1206;103053;-72
2021/04/04 00:04:44;;;;;;;33.50;16.60;;;;;;;1.27;58.56;99124.73;114448;1206;103200;-71
2021/04/04 00:07:13;;;;;;;34.60;17.00;;;;;;;1.27;58.42;99131.75;114379;1206;103050;-71
2021/04/04 00:09:40;;;;;;;35.33;17.83;;;;;;;1.25;58.32;99131.78;114446;1206;103168;-72
2021/04/04 00:12:09;;;;;;;35.60;17.05;;;;;;;1.24;58.71;99126.61;114410;1206;103095;-73
2021/04/04 00:14:37;;;;;;;34.45;17.30;;;;;;;1.21;58.21;99126.71;114469;1205;103146;-72
2021/04/04 00:17:06;;;;;;;;;;;;;;;1.21;58.53;99132.83;114396;1206;104697;-71
2021/04/04 00:19:33;;;;;;;34.50;16.90;;;;;;;1.19;58.90;99130.23;114441;1206;103274;-71
2021/04/04 00:22:00;;;;;;;37.10;18.10;;;;;;;1.20;58.72;99136.35;114495;1206;103155;-72
2021/04/04 00:24:27;;;;;;;39.00;18.60;;;;;;;1.19;59.09;99139.88;114421;1206;103060;-72
2021/04/04 00:26:54;;;;;;;34.53;15.83;;;;;;;1.18;58.93;99141.63;114514;1206;103044;-72
2021/04/04 00:29:21;;;;;;;37.50;17.20;;;;;;;1.17;58.96;99152.17;114433;1206;103158;-71
2021/04/04 00:31:48;;;;;;;37.83;16.83;;;;;;;1.16;59.09;99153.92;114407;1206;103523;-71
2021/04/04 00:34:17;;;;;;;35.15;17.13;;;;;;;1.14;59.01;99144.41;114456;1206;103082;-71
2021/04/04 00:36:44;;;;;;;35.40;17.50;;;;;;;1.12;59.05;99152.30;114396;1206;103105;-72
2021/04/04 00:39:13;;;;;;;34.40;16.65;;;;;;;1.11;59.00;99153.20;114408;1206;103049;-71
2021/04/04 00:41:44;;;;;;;34.80;16.90;;;;;;;1.09;58.71;99155.02;114477;1205;103290;-71
2021/04/04 00:44:12;;;;;;;36.75;15.55;;;;;;;1.06;59.15;99155.12;114489;1206;103079;-72
2021/04/04 00:46:41;;;;;;;33.53;15.80;;;;;;;1.03;59.09;99155.21;114483;1206;103092;-72
2021/04/04 00:49:08;;;;;;;33.10;15.15;;;;;;;1.00;59.24;99152.72;114469;1206;103159;-73
2021/04/04 00:51:36;;;;;;;33.70;16.50;;;;;;;0.97;59.32;99152.81;114367;1206;103535;-72
2021/04/04 00:54:04;;;;;;;34.10;16.60;;;;;;;0.95;59.09;99158.09;114415;1206;103172;-71
2021/04/04 00:56:34;;;;;;;33.20;15.00;;;;;;;0.93;58.83;99162.52;114395;1206;103168;-72
2021/04/04 00:59:03;;;;;;;35.37;16.10;;;;;;;0.92;59.27;99167.82;114487;1206;103181;-72
2021/04/04 01:01:34;;;;;;;34.35;14.20;;;;;;;0.89;59.00;99171.38;114328;1206;103078;-72
2021/04/04 01:04:01;;;;;;;32.25;14.80;;;;;;;0.92;59.49;99173.05;114371;1206;103098;-72
2021/04/04 01:06:28;;;;;;;34.20;15.60;;;;;;;0.88;59.13;99177.52;114476;1206;103136;-71
2021/04/04 01:08:57;;;;;;;32.75;14.60;;;;;;;0.86;59.08;99176.70;114295;1205;103114;-72
2021/04/04 01:11:38;;;;;;;30.53;14.17;;;;;;;0.87;58.95;99175.80;114382;1206;103198;-71
2021/04/04 01:14:27;;;;;;;30.20;14.60;;;;;;;0.84;59.21;99183.75;114515;1206;103091;-71
2021/04/04 01:17:00;;;;;;;31.30;13.90;;;;;;;0.81;59.57;99181.26;114519;1206;103155;-72
2021/04/04 01:20:03;;;;;;;29.55;14.35;;;;;;;0.76;59.54;99178.77;114517;1206;103072;-72
2021/04/04 01:22:54;;;;;;;28.60;13.15;;;;;;;0.74;59.45;99181.44;115828;1205;101258;-72
2021/04/04 01:25:38;;;;;;;32.30;14.25;;;;;;;0.72;59.16;99178.02;115830;1206;101160;-71
2021/04/04 01:28:12;;;;;;;33.45;14.60;;;;;;;0.72;59.05;99179.75;114374;1206;103174;-72
2021/04/04 01:30:42;;;;;;;31.15;13.45;;;;;;;0.70;59.23;99179.81;114409;1206;103124;-71
2021/04/04 01:33:17;;;;;;;31.10;14.10;;;;;;;0.67;59.59;99179.03;114346;1206;103114;-71
2021/04/04 01:35:55;;;;;;;31.50;14.80;;;;;;;0.64;59.58;99179.13;115285;1206;103169;-71
2021/04/04 01:38:27;;;;;;;32.75;13.35;;;;;;;0.61;59.67;99176.63;114507;1206;103201;-71
2021/04/04 01:41:05;;;;;;;31.95;14.35;;;;;;;0.59;59.43;99166.19;114489;1206;103169;-71
2021/04/04 01:43:35;;;;;;;33.50;15.40;;;;;;;0.57;59.19;99166.25;114549;1206;103050;-72
2021/04/04 01:46:04;;;;;;;34.05;15.75;;;;;;;0.56;59.37;99172.39;114518;1206;103165;-70
2021/04/04 01:48:34;;;;;;;32.90;14.00;;;;;;;0.57;59.58;99170.61;114440;1206;103111;-70
2021/04/04 01:51:04;;;;;;;29.40;14.20;;;;;;;0.57;59.99;99171.48;114478;1206;103187;-70
2021/04/04 01:53:33;;;;;;;31.10;13.60;;;;;;;0.57;59.72;99171.48;114462;1206;103178;-72
2021/04/04 01:56:02;;;;;;;32.23;14.40;;;;;;;0.59;60.03;99174.91;114451;1206;103079;-71
2021/04/04 01:58:33;;;;;;;33.70;17.10;;;;;;;0.59;60.10;99169.68;114497;1206;103130;-71
2021/04/04 02:01:03;;;;;;;32.40;14.40;;;;;;;0.59;59.54;99174.04;114459;1206;103118;-70
2021/04/04 02:03:33;;;;;;;31.80;14.60;;;;;;;0.59;59.70;99176.66;114502;1206;103165;-70
2021/04/04 02:06:02;;;;;;;31.75;14.15;;;;;;;0.60;60.45;99180.99;114489;1206;103175;-71
2021/04/04 02:08:30;;;;;;;31.00;13.90;;;;;;;0.59;59.68;99171.42;114498;1206;103076;-71
2021/04/04 02:11:01;;;;;;;29.50;15.10;;;;;;;0.59;59.86;99184.52;114473;1206;103156;-70
2021/04/04 02:13:32;;;;;;;30.30;13.30;;;;;;;0.57;59.77;99186.31;114472;1206;103219;-70
2021/04/04 02:16:03;;;;;;;30.55;15.05;;;;;;;0.55;60.06;99183.76;114533;1206;103158;-70
2021/04/04 02:18:34;;;;;;;30.05;13.45;;;;;;;0.54;59.82;99189.02;114455;1206;103136;-70
2021/04/04 02:21:04;;;;;;;31.60;15.30;;;;;;;0.53;60.47;99192.54;114520;1206;103090;-72
2021/04/04 02:23:31;;;;;;;28.53;13.03;;;;;;;0.54;59.94;99194.26;114494;1205;103079;-72
2021/04/04 02:26:00;;;;;;;31.10;14.00;;;;;;;0.55;60.26;99186.38;114497;1206;103088;-71
2021/04/04 02:28:29;;;;;;;28.40;12.90;;;;;;;0.54;60.55;99192.52;114516;1206;103076;-72
2021/04/04 02:30:59;;;;;;;25.65;10.30;;;;;;;0.53;60.27;99198.65;114492;1206;103088;-72
2021/04/04 02:33:35;;;;;;;27.50;12.45;;;;;;;0.48;60.22;99199.67;114497;1205;103143;-71
2021/04/04 02:36:10;;;;;;;29.93;12.57;;;;;;;0.47;60.49;99200.56;114418;1206;103293;-72
2021/04/04 02:38:51;;;;;;;28.90;13.20;;;;;;;0.47;60.83;99208.42;114392;1206;103159;-71
2021/04/04 02:41:20;;;;;;;28.75;12.90;;;;;;;0.47;59.95;99209.30;114334;1206;103155;-72
2021/04/04 02:43:55;;;;;;;27.00;12.80;;;;;;;0.50;60.27;99211.83;114397;1206;103082;-72
2021/04/04 02:46:25;;;;;;;26.50;12.10;;;;;;;0.53;60.12;99205.63;114420;1206;103117;-72
2021/04/04 02:49:04;;;;;;;28.80;13.40;;;;;;;0.55;60.46;99206.44;115390;1206;103325;-72
2021/04/04 02:51:38;;;;;;;29.10;12.90;;;;;;;0.58;60.48;99206.35;114389;1206;103171;-71
2021/04/04 02:54:08;;;;;;;30.00;12.60;;;;;;;0.62;60.18;99207.11;114488;1206;103067;-71
2021/04/04 02:56:40;;;;;;;29.40;14.10;;;;;;;0.64;60.31;99207.92;114506;1206;103156;-74
2021/04/04 02:59:18;;;;;;;28.27;13.47;;;;;;;0.65;60.90;99210.52;114487;1206;103057;-72
2021/04/04 03:01:48;;;;;;;28.40;13.40;;;;;;;0.68;60.37;99209.55;114537;1206;103210;-73
2021/04/04 03:04:18;;;;;;;30.70;13.70;;;;;;;0.68;60.85;99210.42;114459;1206;103162;-72
2021/04/04 03:06:50;;;;;;;29.95;14.00;;;;;;;0.71;60.92;99219.93;114501;1206;103198;-72
2021/04/04 03:09:19;;;;;;;;;;;;;;;0.71;60.92;99214.70;114462;1206;103280;-70
2021/04/04 03:11:48;;;;;;;30.95;14.90;;;;;;;0.69;60.79;99217.38;114495;1206;103152;-72
2021/04/04 03:14:18;;;;;;;33.00;14.40;;;;;;;0.72;61.02;99225.14;114519;1206;103079;-72
2021/04/04 03:16:47;;;;;;;34.85;15.15;;;;;;;0.75;61.15;99224.17;114517;1206;103155;-72
2021/04/04 03:19:17;;;;;;;31.53;14.60;;;;;;;0.77;60.58;99222.38;114490;1206;103158;-72
2021/04/04 03:21:48;;;;;;;28.40;13.20;;;;;;;0.81;61.02;99218.76;114478;1206;103088;-71
2021/04/04 03:24:18;;;;;;;30.20;14.10;;;;;;;0.84;61.13;99221.28;114446;1206;103127;-71
2021/04/04 03:26:47;;;;;;;32.25;14.70;;;;;;;0.88;61.10;99222.91;114379;1205;103076;-72
2021/04/04 03:29:16;;;;;;;30.65;14.65;;;;;;;0.89;61.02;99228.99;114469;1206;103213;-73
2021/04/04 03:31:44;;;;;;;30.60;13.90;;;;;;;0.88;60.88;99228.16;114429;1206;103095;-70
2021/04/04 03:34:12;;;;;;;31.50;14.00;;;;;;;0.89;60.73;99227.25;114405;1206;103641;-73
2021/04/04 03:36:41;;;;;;;30.40;14.00;;;;;;;0.93;61.02;99227.16;114481;1206;103226;-73
2021/04/04 03:39:10;;;;;;;30.70;12.90;;;;;;;0.94;60.95;99234.95;114481;1206;103059;-72
2021/04/04 03:41:39;;;;;;;32.50;13.60;;;;;;;0.93;60.83;99229.77;114475;1206;103200;-72
2021/04/04 03:44:10;;;;;;;31.20;13.50;;;;;;;0.94;61.40;99234.95;114373;1206;103047;-72
2021/04/04 03:46:39;;;;;;;31.85;15.30;;;;;;;0.95;61.09;99230.59;114425;1206;103203;-72
2021/04/04 03:49:09;;;;;;;30.40;14.70;;;;;;;0.97;61.19;99239.26;114524;1206;103104;-71
2021/04/04 03:51:36;;;;;;;33.20;17.50;;;;;;;1.00;61.43;99239.17;114500;1206;103079;-71
2021/04/04 03:54:10;;;;;;;40.70;20.00;;;;;;;1.00;61.30;99242.63;114460;1206;103143;-70
2021/04/04 03:56:40;;;;;;;40.57;20.10;;;;;;;1.03;61.70;99244.28;114473;1206;103179;-71
2021/04/04 03:59:12;;;;;;;33.80;16.30;;;;;;;1.07;61.63;99243.28;114451;1206;103197;-71
2021/04/04 04:01:45;;;;;;;31.30;14.77;;;;;;;1.10;61.43;99240.57;114514;1206;103053;-71
2021/04/04 04:04:15;;;;;;;32.75;14.85;;;;;;;1.12;61.55;99241.38;114450;1205;103162;-71
2021/04/04 04:06:45;;;;;;;34.15;14.15;;;;;;;1.15;61.63;99246.53;114408;1206;103171;-72
2021/04/04 04:09:17;;;;;;;29.35;13.20;;;;;;;1.18;61.50;99243.81;114412;1206;103062;-72
2021/04/04 04:11:48;;;;;;;31.10;14.25;;;;;;;1.20;61.62;99243.78;114535;1206;103201;-71
2021/04/04 04:14:20;;;;;;;29.90;13.05;;;;;;;1.22;61.65;99236.73;114514;1206;103156;-72
2021/04/04 04:16:49;;;;;;;29.60;13.20;;;;;;;1.26;61.70;99242.72;114423;1206;103704;-71
2021/04/04 04:19:18;;;;;;;34.40;13.80;;;;;;;1.28;61.53;99247.00;114518;1206;103175;-72
2021/04/04 04:21:49;;;;;;;28.95;13.10;;;;;;;1.29;61.83;99247.87;114530;1206;103085;-71
2021/04/04 04:24:19;;;;;;;32.40;14.00;;;;;;;1.31;61.66;99241.66;114429;1205;103060;-71
2021/04/04 04:26:48;;;;;;;28.20;14.10;;;;;;;1.34;62.02;99243.34;114690;1206;103190;-71
2021/04/04 04:29:19;;;;;;;28.45;13.50;;;;;;;1.39;61.81;99237.94;115144;1206;103076;-71
2021/04/04 04:31:54;;;;;;;30.00;13.20;;;;;;;1.39;61.66;99243.18;114965;1206;103050;-70
2021/04/04 04:34:24;;;;;;;28.80;12.00;;;;;;;1.42;61.68;99237.84;114445;1206;103237;-70
2021/04/04 04:36:54;;;;;;;28.50;12.45;;;;;;;1.45;61.87;99241.20;114433;1206;103313;-70
2021/04/04 04:39:22;;;;;;;30.30;14.10;;;;;;;1.49;61.72;99247.23;114377;1206;103152;-70
2021/04/04 04:41:52;;;;;;;27.63;12.20;;;;;;;1.52;61.80;99248.88;114289;1206;103096;-71
2021/04/04 04:44:26;;;;;;;28.65;12.15;;;;;;;1.53;61.50;99256.70;114211;1206;103092;-71
2021/04/04 04:46:55;;;;;;;28.90;12.90;;;;;;;1.54;61.74;99255.80;114369;1206;103200;-71
2021/04/04 04:49:22;;;;;;;27.83;11.97;;;;;;;1.56;62.10;99253.12;114385;1206;103123;-74
2021/04/04 04:51:51;;;;;;;31.20;13.80;;;;;;;1.58;61.81;99260.05;114329;1206;103085;-71
2021/04/04 04:54:21;;;;;;;28.95;13.35;;;;;;;1.57;62.04;99274.06;114512;1205;103274;-70
2021/04/04 04:56:50;;;;;;;32.30;14.60;;;;;;;1.58;61.96;99267.03;114430;1206;103081;-70
2021/04/04 04:59:17;;;;;;;36.17;16.30;;;;;;;1.58;62.17;99274.90;114490;1206;103085;-70
2021/04/04 05:01:49;;;;;;;35.13;17.17;;;;;;;1.57;61.56;99275.80;114458;1206;103149;-70
2021/04/04 05:04:17;;;;;;;35.80;13.80;;;;;;;1.55;61.85;99283.73;114525;1205;103081;-70
2021/04/04 05:06:50;;;;;;;32.40;13.75;;;;;;;1.55;61.89;99288.11;114461;1206;103245;-72
2021/04/04 05:09:19;;;;;;;31.80;13.45;;;;;;;1.57;61.92;99281.05;115401;1206;103186;-71
2021/04/04 05:11:49;;;;;;;26.00;12.60;;;;;;;1.59;61.95;99281.86;114491;1206;103056;-71
2021/04/04 05:14:16;;;;;;;29.70;13.20;;;;;;;1.59;62.13;99287.98;114468;1206;103201;-72
2021/04/04 05:16:46;;;;;;;30.60;13.35;;;;;;;1.59;61.83;99280.11;114478;1206;103201;-71
2021/04/04 05:19:15;;;;;;;31.20;13.50;;;;;;;1.62;62.17;99285.26;114449;1206;103287;-71
2021/04/04 05:21:44;;;;;;;28.30;13.80;;;;;;;1.69;62.10;99282.41;114375;1206;102763;-68
2021/04/04 05:24:14;;;;;;;26.85;13.45;;;;;;;1.73;62.34;99286.65;114452;1206;103162;-69
2021/04/04 05:26:45;;;;;;;31.20;13.90;;;;;;;1.77;62.20;99289.14;114411;1205;103104;-69
2021/04/04 05:29:22;;;;;;;28.70;13.60;;;;;;;1.82;62.25;99286.35;114424;1206;103059;-71
2021/04/04 05:31:52;;;;;;;30.10;12.90;;;;;;;1.82;62.17;99283.73;114454;1206;103179;-70
2021/04/04 05:34:28;;;;;;;28.30;13.50;;;;;;;1.85;62.06;99282.75;114192;1206;103137;-70
2021/04/04 05:37:02;;;;;;;29.80;13.75;;;;;;;1.85;61.94;99281.00;114389;1206;103102;-69
2021/04/04 05:39:33;;;;;;;30.40;13.35;;;;;;;1.85;61.84;99281.00;114394;1206;103207;-71
2021/04/04 05:42:12;;;;;;;26.30;13.20;;;;;;;1.87;62.14;99281.81;114429;1206;103107;-68
2021/04/04 05:44:56;;;;;;;30.60;13.40;;;;;;;1.91;61.74;99286.05;114436;1206;103120;-69
2021/04/04 05:47:28;;;;;;;;;;;;;;;1.93;62.58;99291.23;114442;1213;103082;-70
2021/04/04 05:50:17;;;;;;;32.20;13.40;;;;;;;1.91;62.31;99282.55;114444;1206;103098;-69
2021/04/04 05:53:28;;;;;;;36.55;15.85;;;;;;;1.92;62.28;99281.64;114434;1206;103271;-69
2021/04/04 05:56:22;;;;;;;29.15;14.40;;;;;;;1.91;62.29;99286.05;114393;1206;103155;-68
2021/04/04 05:58:54;;;;;;;;;;;;;;;1.93;62.46;99284.23;114433;1213;103096;-69
2021/04/04 06:01:33;;;;;;;28.55;14.35;;;;;;;1.91;62.14;99285.17;114361;1206;103162;-69
2021/04/04 06:04:32;;;;;;;32.50;15.50;;;;;;;1.87;62.49;99294.05;114387;1206;103067;-71
2021/04/04 06:06:58;;;;;;;39.00;18.20;;;;;;;1.91;62.41;99290.42;114414;1206;103198;-70
2021/04/04 06:09:56;;;;;;;34.60;16.35;;;;;;;1.95;62.22;99296.44;114417;1206;103236;-70
2021/04/04 06:12:51;;;;;;;31.20;14.80;;;;;;;1.96;62.17;99291.13;114421;1206;103182;-72
2021/04/04 06:15:47;;;;;;;31.05;14.40;;;;;;;1.98;62.31;99285.84;114366;1206;103091;-72
2021/04/04 06:18:47;;;;;;;31.25;14.05;;;;;;;2.06;62.44;99286.42;114451;1206;103139;-74
2021/04/04 06:21:36;;;;;;;32.80;15.00;;;;;;;2.15;62.20;99280.02;114403;1206;103197;-74
2021/04/04 06:24:22;;;;;;;29.25;13.85;;;;;;;2.30;62.44;99281.24;114438;1206;103128;-74
2021/04/04 06:27:31;;;;;;;30.20;14.60;;;;;;;2.45;62.71;99287.72;114264;1206;103220;-76
2021/04/04 06:30:20;;;;;;;28.80;14.30;;;;;;;2.60;62.62;99284.55;114293;1205;103194;-75
2021/04/04 06:33:12;;;;;;;30.03;15.60;;;;;;;2.74;62.79;99283.16;114442;1206;103086;-75
2021/04/04 06:35:52;;;;;;;29.17;14.40;;;;;;;2.91;62.68;99288.66;114420;1206;103168;-74
2021/04/04 06:38:51;;;;;;;34.05;16.90;;;;;;;2.98;62.61;99291.89;114983;1171;103050;-76
2021/04/04 06:41:31;;;;;;;29.10;14.93;;;;;;;3.08;62.23;99300.28;114546;1206;103159;-73
2021/04/04 06:44:07;;;;;;;29.90;15.00;;;;;;;3.12;62.39;99301.88;114514;1205;103165;-71
2021/04/04 06:46:51;;;;;;;28.13;16.00;;;;;;;3.16;62.32;99300.00;114527;1206;103181;-71
2021/04/04 06:49:36;;;;;;;27.87;13.93;;;;;;;3.24;62.34;99300.57;114537;1205;103152;-71
2021/04/04 06:52:10;;;;;;;29.35;13.90;;;;;;;3.30;62.81;99304.72;114518;1205;103081;-76
2021/04/04 06:55:03;;;;;;;27.65;14.20;;;;;;;3.28;62.28;99302.14;114475;1206;103088;-75
2021/04/04 06:57:54;;;;;;;26.85;14.10;;;;;;;3.27;62.47;99306.55;114476;1209;103203;-70
2021/04/04 07:00:25;;;;;;;31.30;14.30;;;;;;;3.33;62.71;99302.81;114515;1205;103168;-71
2021/04/04 07:02:56;;;;;;;28.43;13.93;;;;;;;3.37;62.62;99311.46;114431;1205;103121;-71
2021/04/04 07:05:30;;;;;;;25.80;13.50;;;;;;;3.33;62.77;99301.97;115011;1206;103079;-74
2021/04/04 07:08:12;;;;;;;29.30;14.75;;;;;;;3.32;62.75;99316.88;114578;1206;103041;-73
2021/04/04 07:11:21;;;;;;;27.20;13.70;;;;;;;3.40;62.12;99319.23;114566;1206;103082;-72
2021/04/04 07:14:20;;;;;;;25.73;13.20;;;;;;;3.50;62.27;99317.09;114548;1205;103149;-71
2021/04/04 07:17:02;;;;;;;27.20;13.30;;;;;;;3.55;63.02;99323.87;114462;1206;103207;-72
2021/04/04 07:19:39;;;;;;;29.30;15.25;;;;;;;3.54;62.90;99326.57;114532;1206;103202;-70
2021/04/04 07:22:34;;;;;;;33.45;15.40;;;;;;;3.56;62.81;99327.37;114568;1206;103197;-70
2021/04/04 07:25:27;;;;;;;25.93;14.27;;;;;;;3.52;62.24;99333.66;114583;1206;103092;-74
2021/04/04 07:28:15;;;;;;;24.80;14.23;;;;;;;3.47;63.13;99333.83;114532;1205;103120;-72
2021/04/04 07:30:54;;;;;;;27.33;14.23;;;;;;;3.54;62.78;99334.46;114556;1206;103076;-71
2021/04/04 07:33:44;;;;;;;29.10;14.65;;;;;;;3.57;62.66;99334.34;114640;1205;103108;-72
2021/04/04 07:36:34;;;;;;;26.20;13.50;;;;;;;3.55;62.54;99334.39;114593;1206;103832;-72
2021/04/04 07:39:05;;;;;;;24.95;12.80;;;;;;;3.60;63.01;99335.98;114522;1206;103085;-70
2021/04/04 07:41:45;;;;;;;28.70;14.30;;;;;;;3.81;61.79;99344.79;114502;1206;103488;-73
2021/04/04 07:44:35;;;;;;;25.00;12.90;;;;;;;4.20;62.00;99335.32;114511;1206;103152;-71
2021/04/04 07:47:16;;;;;;;25.55;12.30;;;;;;;4.21;62.27;99334.40;114464;1206;103110;-72
2021/04/04 07:50:02;;;;;;;20.87;10.40;;;;;;;4.27;62.10;99334.98;114483;1206;103178;-70
2021/04/04 07:52:52;;;;;;;27.25;12.85;;;;;;;4.51;62.50;99336.63;114441;1206;103166;-73
2021/04/04 07:55:26;;;;;;;23.10;11.40;;;;;;;5.85;61.34;99328.75;114507;1206;103066;-73
2021/04/04 07:58:01;;;;;;;23.85;10.85;;;;;;;6.03;62.02;99335.80;114462;1206;103185;-72
2021/04/04 08:00:34;;;;;;;23.05;10.75;;;;;;;6.43;62.05;99338.20;114517;1206;103113;-71
2021/04/04 08:03:16;;;;;;;18.67;9.40;;;;;;;6.43;62.40;99335.56;114443;1206;103602;-72
2021/04/04 08:05:50;;;;;;;23.60;12.20;;;;;;;7.29;61.61;99331.94;114250;1206;103232;-71
2021/04/04 08:08:26;;;;;;;19.45;8.70;;;;;;;8.42;61.18;99325.52;114540;1205;103587;-72
2021/04/04 08:11:15;;;;;;;20.55;9.40;;;;;;;8.70;62.02;99336.30;114623;1205;103124;-71
2021/04/04 08:13:55;;;;;;;20.75;8.80;;;;;;;8.51;62.18;99334.74;114472;1206;103050;-71
2021/04/04 08:16:28;;;;;;;22.25;9.20;;;;;;;8.25;62.13;99329.17;114473;1206;103577;-74
2021/04/04 08:18:55;;;;;;;18.20;7.80;;;;;;;7.94;62.17;99335.40;114459;1206;103552;-71
2021/04/04 08:21:35;;;;;;;20.95;9.85;;;;;;;7.39;61.73;99337.56;114376;1205;102073;-70
2021/04/04 08:24:10;;;;;;;19.90;8.70;;;;;;;7.12;61.95;99339.02;114487;1205;103147;-70
2021/04/04 08:27:01;;;;;;;19.95;8.70;;;;;;;6.86;61.82;99337.77;114627;1206;103161;-71
2021/04/04 08:30:17;;;;;;;20.00;8.50;;;;;;;6.60;61.92;99345.26;114517;1206;103187;-71
2021/04/04 08:32:57;;;;;;;24.95;11.10;;;;;;;6.22;61.36;99333.09;114499;1206;103276;-70
2021/04/04 08:35:38;;;;;;;22.25;10.65;;;;;;;6.08;61.58;99332.92;114477;1206;103169;-71
2021/04/04 08:38:08;;;;;;;22.00;9.60;;;;;;;6.08;61.69;99338.20;114513;1206;103150;-70
2021/04/04 08:40:39;;;;;;;18.15;8.00;;;;;;;6.15;61.61;99336.97;114520;1206;103117;-71
2021/04/04 08:43:11;;;;;;;17.27;6.20;;;;;;;6.11;61.66;99332.77;114583;1206;103354;-70
2021/04/04 08:46:01;;;;;;;15.40;6.30;;;;;;;5.95;61.47;99341.41;114537;1206;103517;-70
2021/04/04 08:48:31;;;;;;;17.10;6.40;;;;;;;5.78;61.64;99339.60;114487;1206;103491;-71
2021/04/04 08:51:07;;;;;;;13.30;5.60;;;;;;;5.64;61.11;99345.55;114417;1205;103178;-71
2021/04/04 08:53:44;;;;;;;16.20;6.20;;;;;;;5.51;61.55;99341.77;114374;1204;103085;-71
2021/04/04 08:56:16;;;;;;;14.15;5.30;;;;;;;5.47;61.35;99338.44;114475;1206;103164;-71
2021/04/04 08:58:51;;;;;;;17.07;5.70;;;;;;;5.46;61.14;99341.16;114373;1206;103149;-72
2021/04/04 09:01:35;;;;;;;12.13;4.60;;;;;;;5.42;61.30;99337.80;114450;1205;103107;-72
2021/04/04 09:04:06;;;;;;;16.05;5.20;;;;;;;5.46;61.21;99339.37;114430;1205;103644;-72
2021/04/04 09:06:39;;;;;;;11.85;4.45;;;;;;;5.59;61.19;99336.16;114398;1206;103354;-70
2021/04/04 09:09:20;;;;;;;16.03;5.03;;;;;;;5.63;61.04;99341.20;114443;1205;103188;-71
2021/04/04 09:11:52;;;;;;;11.15;4.75;;;;;;;5.71;61.05;99346.10;114359;1206;103073;-71
2021/04/04 09:14:23;;;;;;;13.05;4.50;;;;;;;5.73;61.07;99341.61;114460;1206;103078;-71
2021/04/04 09:16:59;;;;;;;16.25;5.30;;;;;;;5.74;60.94;99343.31;114459;1206;103079;-71
2021/04/04 09:19:37;;;;;;;12.77;5.13;;;;;;;5.76;60.99;99340.62;114427;1205;103145;-70
2021/04/04 09:22:15;;;;;;;15.23;5.47;;;;;;;5.74;60.68;99339.84;114606;1206;103344;-71
2021/04/04 09:24:55;;;;;;;16.53;5.53;;;;;;;5.77;60.92;99339.69;114506;1206;103085;-71
2021/04/04 09:27:26;;;;;;;20.15;7.10;;;;;;;5.84;60.76;99334.95;114920;1206;103545;-74
2021/04/04 09:29:57;;;;;;;16.30;5.40;;;;;;;5.84;61.10;99333.19;114402;1206;103172;-72
2021/04/04 09:32:38;;;;;;;17.90;5.40;;;;;;;5.89;60.59;99340.87;114624;1206;103606;-73
2021/04/04 09:35:15;;;;;;;18.00;5.90;;;;;;;5.95;60.61;99340.58;114565;1205;103052;-72
2021/04/04 15:02:23;;;;;;;10.10;3.80;;;;;;;7.77;56.29;99075.05;114815;1171;103053;-72
2021/04/04 15:04:50;;;;;;;9.05;3.85;;;;;;;7.86;56.43;99068.36;114556;1206;103171;-73
2021/04/04 15:07:17;;;;;;;12.03;4.00;;;;;;;7.88;56.01;99064.66;114297;1206;103158;-72
2021/04/04 15:09:44;;;;;;;12.00;4.70;;;;;;;7.85;55.85;99067.50;114176;1206;103037;-74
2021/04/04 15:12:11;;;;;;;9.95;3.70;;;;;;;7.85;56.21;99061.37;114145;1206;103929;-72
2021/04/04 15:14:38;;;;;;;9.55;4.20;;;;;;;7.83;55.81;99053.50;114425;1206;103510;-72
2021/04/04 15:17:05;;;;;;;12.65;4.50;;;;;;;7.82;56.10;99050.96;114480;1206;103184;-73
2021/04/04 15:19:33;;;;;;;12.95;4.75;;;;;;;7.81;55.75;99054.55;114363;1206;103166;-73
2021/04/04 15:22:00;;;;;;;14.10;5.30;;;;;;;7.78;55.76;99055.58;114349;1206;103137;-73
2021/04/04 15:24:27;;;;;;;15.80;5.60;;;;;;;7.74;55.63;99054.09;114308;1205;103056;-73
2021/04/04 15:26:53;;;;;;;16.60;6.15;;;;;;;7.67;55.97;99050.11;114213;1206;103529;-73
2021/04/04 15:29:20;;;;;;;15.20;5.20;;;;;;;7.62;55.72;99054.83;114416;1205;103079;-72
2021/04/04 15:31:47;;;;;;;15.20;5.50;;;;;;;7.55;55.84;99049.03;114214;1206;103081;-72
2021/04/04 15:34:14;;;;;;;15.37;5.10;;;;;;;7.49;55.38;99044.97;114376;1206;103056;-72
2021/04/04 15:36:41;;;;;;;15.80;5.80;;;;;;;7.45;55.33;99046.09;114530;1206;103092;-72
2021/04/04 15:39:10;;;;;;;16.90;5.90;;;;;;;7.41;55.58;99049.88;114383;1205;103059;-72
2021/04/04 15:41:37;;;;;;;18.75;7.10;;;;;;;7.36;55.25;99046.64;114654;1206;103056;-71
2021/04/04 15:44:04;;;;;;;19.60;7.20;;;;;;;7.27;55.25;99040.98;114479;1206;103209;-71
2021/04/04 15:46:32;;;;;;;23.55;8.55;;;;;;;7.23;55.12;99039.46;114525;1205;103158;-72
2021/04/04 15:48:59;;;;;;;19.67;7.03;;;;;;;7.21;55.27;99033.41;114412;1206;103194;-73
2021/04/04 15:51:26;;;;;;;20.33;7.50;;;;;;;7.18;55.41;99033.59;114424;1206;103062;-74
2021/04/04 15:53:55;;;;;;;18.30;6.35;;;;;;;7.18;55.11;99030.08;114479;1206;103050;-71
2021/04/04 15:56:22;;;;;;;16.73;5.83;;;;;;;7.15;55.18;99036.41;114365;1206;103162;-71
2021/04/04 15:58:49;;;;;;;16.85;6.40;;;;;;;7.12;55.26;99029.52;114473;1206;103060;-72
2021/04/04 16:01:16;;;;;;;18.43;7.20;;;;;;;7.11;55.12;99030.47;114359;1206;103159;-72
2021/04/04 16:03:43;;;;;;;;;;;;;;;7.11;54.88;99019.88;114358;1206;103156;-70
2021/04/04 16:06:10;;;;;;;21.00;7.60;;;;;;;7.08;54.75;99025.36;114466;1206;103214;-72
2021/04/04 16:08:37;;;;;;;24.45;8.40;;;;;;;7.06;54.65;99018.44;114417;1206;103088;-72
2021/04/04 16:11:16;;;;;;;25.60;9.00;;;;;;;7.04;54.87;99017.67;114434;1206;103184;-71
2021/04/04 16:13:44;;;;;;;23.50;8.95;;;;;;;7.03;54.63;99018.61;114411;1206;103165;-75
2021/04/04 16:16:13;;;;;;;23.30;8.90;;;;;;;7.02;54.57;99019.55;114450;1206;103207;-70
2021/04/04 16:18:40;;;;;;;25.80;10.60;;;;;;;7.00;54.78;99015.20;114464;1206;103544;-71
2021/04/04 16:21:07;;;;;;;27.90;12.45;;;;;;;6.98;54.84;99010.96;114362;1206;103085;-71
2021/04/04 16:23:54;;;;;;;30.80;13.90;;;;;;;6.97;54.56;99002.16;114444;1206;102852;-72
2021/04/04 16:26:23;;;;;;;27.80;12.40;;;;;;;6.95;54.39;99003.20;114401;1205;103191;-72
2021/04/04 16:28:51;;;;;;;25.30;10.35;;;;;;;6.93;54.59;99008.56;114479;1205;103165;-71
2021/04/04 16:31:19;;;;;;;23.85;10.05;;;;;;;6.92;54.75;99004.25;114440;1206;103078;-72
2021/04/04 16:33:47;;;;;;;23.95;9.30;;;;;;;6.89;54.30;98998.27;114357;1206;103232;-71
2021/04/04 16:36:16;;;;;;;26.70;11.15;;;;;;;6.88;54.46;99004.50;114461;1206;103194;-71
2021/04/04 16:38:43;;;;;;;28.03;10.90;;;;;;;6.85;54.25;99002.91;114337;1206;103143;-72
2021/04/04 16:41:10;;;;;;;26.10;10.20;;;;;;;6.82;54.37;99003.91;114341;1206;103158;-72
2021/04/04 16:43:39;;;;;;;25.83;8.93;;;;;;;6.80;54.27;98997.86;114417;1205;103158;-72
2021/04/04 16:46:11;;;;;;;27.60;9.60;;;;;;;6.78;54.37;99001.55;114457;1206;103271;-73
2021/04/04 16:48:38;;;;;;;25.30;10.00;;;;;;;6.77;54.33;99008.61;114350;1206;104692;-71
2021/04/04 16:51:05;;;;;;;24.40;9.57;;;;;;;6.75;54.33;99007.85;114328;1206;103522;-72
2021/04/04 16:53:35;;;;;;;29.30;11.80;;;;;;;6.72;54.33;99004.55;114459;1206;103099;-72
2021/04/04 16:56:05;;;;;;;29.10;11.95;;;;;;;6.69;53.98;99001.14;114470;1205;103184;-72
2021/04/04 16:58:32;;;;;;;32.10;13.40;;;;;;;6.67;54.21;98994.25;114409;1205;103165;-72
2021/04/04 17:00:59;;;;;;;30.85;12.85;;;;;;;6.64;54.16;98995.27;114385;1206;103577;-71
2021/04/04 17:03:28;;;;;;;30.50;13.63;;;;;;;6.62;54.07;98998.95;114072;1206;103155;-71
2021/04/04 17:05:58;;;;;;;29.20;14.60;;;;;;;6.59;54.18;98992.03;114273;1206;103286;-72
2021/04/04 17:08:30;;;;;;;34.20;14.90;;;;;;;6.57;53.96;98995.72;114401;1206;103056;-71